sensor_id;sensor_type;location;lat;lon;timestamp;P1;durP1;ratioP1;P2;durP2;ratioP2
40991;SDS011;29633;49.168;9.848;2023-08-12T00:01:55;2.78;;;1.85;;
40991;SDS011;29633;49.168;9.848;2023-08-12T00:04:21;3.30;;;2.05;;
40991;SDS011;29633;49.168;9.848;2023-08-12T00:06:47;2.22;;;2.03;;
40991;SDS011;29633;49.168;9.848;2023-08-12T00:09:13;2.30;;;2.10;;
40991;SDS011;29633;49.168;9.848;2023-08-12T00:11:40;2.40;;;2.08;;
40991;SDS011;29633;49.168;9.848;2023-08-12T00:14:06;4.63;;;2.38;;
40991;SDS011;29633;49.168;9.848;2023-08-12T00:16:31;2.60;;;1.95;;
40991;SDS011;29633;49.168;9.848;2023-08-12T00:18:57;2.30;;;2.10;;
40991;SDS011;29633;49.168;9.848;2023-08-12T00:21:23;2.88;;;2.10;;
40991;SDS011;29633;49.168;9.848;2023-08-12T00:23:50;2.28;;;2.10;;
40991;SDS011;29633;49.168;9.848;2023-08-12T00:26:16;1.90;;;1.73;;
40991;SDS011;29633;49.168;9.848;2023-08-12T00:28:42;2.30;;;2.00;;
40991;SDS011;29633;49.168;9.848;2023-08-12T00:31:07;2.10;;;1.90;;
40991;SDS011;29633;49.168;9.848;2023-08-12T00:33:33;3.53;;;1.90;;
40991;SDS011;29633;49.168;9.848;2023-08-12T00:35:59;4.97;;;2.00;;
40991;SDS011;29633;49.168;9.848;2023-08-12T00:38:25;2.95;;;2.10;;
40991;SDS011;29633;49.168;9.848;2023-08-12T00:40:51;2.20;;;2.00;;
40991;SDS011;29633;49.168;9.848;2023-08-12T00:43:17;2.03;;;1.90;;
40991;SDS011;29633;49.168;9.848;2023-08-12T00:45:42;2.42;;;2.22;;
40991;SDS011;29633;49.168;9.848;2023-08-12T00:48:09;4.35;;;2.17;;
40991;SDS011;29633;49.168;9.848;2023-08-12T00:50:36;2.30;;;2.10;;
40991;SDS011;29633;49.168;9.848;2023-08-12T00:53:02;2.72;;;2.53;;
40991;SDS011;29633;49.168;9.848;2023-08-12T00:55:31;3.22;;;2.42;;
40991;SDS011;29633;49.168;9.848;2023-08-12T00:57:58;2.38;;;2.17;;
40991;SDS011;29633;49.168;9.848;2023-08-12T01:00:24;2.95;;;2.45;;
40991;SDS011;29633;49.168;9.848;2023-08-12T01:02:50;2.47;;;2.20;;
40991;SDS011;29633;49.168;9.848;2023-08-12T01:05:17;3.38;;;2.67;;
40991;SDS011;29633;49.168;9.848;2023-08-12T01:07:43;2.90;;;2.70;;
40991;SDS011;29633;49.168;9.848;2023-08-12T01:10:10;2.67;;;2.15;;
40991;SDS011;29633;49.168;9.848;2023-08-12T01:15:30;2.40;;;2.20;;
40991;SDS011;29633;49.168;9.848;2023-08-12T01:17:56;2.47;;;2.10;;
40991;SDS011;29633;49.168;9.848;2023-08-12T01:20:25;4.07;;;2.30;;
40991;SDS011;29633;49.168;9.848;2023-08-12T01:23:12;3.25;;;2.20;;
40991;SDS011;29633;49.168;9.848;2023-08-12T01:25:40;2.30;;;2.10;;
40991;SDS011;29633;49.168;9.848;2023-08-12T01:28:07;2.50;;;2.17;;
40991;SDS011;29633;49.168;9.848;2023-08-12T01:30:34;2.72;;;2.38;;
40991;SDS011;29633;49.168;9.848;2023-08-12T01:33:19;2.30;;;2.10;;
40991;SDS011;29633;49.168;9.848;2023-08-12T01:35:56;2.70;;;2.35;;
40991;SDS011;29633;49.168;9.848;2023-08-12T01:38:34;2.67;;;2.47;;
40991;SDS011;29633;49.168;9.848;2023-08-12T01:41:03;3.95;;;2.38;;
40991;SDS011;29633;49.168;9.848;2023-08-12T01:43:29;2.92;;;2.15;;
40991;SDS011;29633;49.168;9.848;2023-08-12T01:45:55;3.10;;;2.10;;
40991;SDS011;29633;49.168;9.848;2023-08-12T01:48:21;2.38;;;2.17;;
40991;SDS011;29633;49.168;9.848;2023-08-12T01:50:48;2.75;;;2.55;;
40991;SDS011;29633;49.168;9.848;2023-08-12T01:53:14;2.67;;;2.17;;
40991;SDS011;29633;49.168;9.848;2023-08-12T01:55:42;3.50;;;2.65;;
40991;SDS011;29633;49.168;9.848;2023-08-12T01:58:09;2.88;;;2.30;;
40991;SDS011;29633;49.168;9.848;2023-08-12T02:00:35;2.55;;;2.28;;
40991;SDS011;29633;49.168;9.848;2023-08-12T02:03:01;3.10;;;2.35;;
40991;SDS011;29633;49.168;9.848;2023-08-12T02:05:27;3.15;;;2.22;;
40991;SDS011;29633;49.168;9.848;2023-08-12T02:07:53;3.42;;;2.33;;
40991;SDS011;29633;49.168;9.848;2023-08-12T02:10:19;2.60;;;2.40;;
40991;SDS011;29633;49.168;9.848;2023-08-12T02:12:45;4.47;;;2.30;;
40991;SDS011;29633;49.168;9.848;2023-08-12T02:15:10;3.05;;;2.17;;
40991;SDS011;29633;49.168;9.848;2023-08-12T02:17:36;3.47;;;2.20;;
40991;SDS011;29633;49.168;9.848;2023-08-12T02:20:02;2.80;;;2.13;;
40991;SDS011;29633;49.168;9.848;2023-08-12T02:22:29;2.17;;;1.98;;
40991;SDS011;29633;49.168;9.848;2023-08-12T02:24:55;2.30;;;2.10;;
40991;SDS011;29633;49.168;9.848;2023-08-12T02:27:21;2.85;;;2.15;;
40991;SDS011;29633;49.168;9.848;2023-08-12T02:29:46;3.25;;;2.40;;
40991;SDS011;29633;49.168;9.848;2023-08-12T02:32:12;3.35;;;2.22;;
40991;SDS011;29633;49.168;9.848;2023-08-12T02:34:38;2.70;;;2.38;;
40991;SDS011;29633;49.168;9.848;2023-08-12T02:37:04;2.30;;;2.10;;
40991;SDS011;29633;49.168;9.848;2023-08-12T02:39:29;3.53;;;2.25;;
40991;SDS011;29633;49.168;9.848;2023-08-12T02:41:55;2.20;;;2.00;;
40991;SDS011;29633;49.168;9.848;2023-08-12T02:44:21;3.05;;;2.08;;
40991;SDS011;29633;49.168;9.848;2023-08-12T02:46:46;2.38;;;2.17;;
40991;SDS011;29633;49.168;9.848;2023-08-12T02:49:12;2.22;;;2.03;;
40991;SDS011;29633;49.168;9.848;2023-08-12T02:51:38;2.08;;;1.98;;
40991;SDS011;29633;49.168;9.848;2023-08-12T02:54:04;4.20;;;2.10;;
40991;SDS011;29633;49.168;9.848;2023-08-12T02:56:30;2.15;;;1.95;;
40991;SDS011;29633;49.168;9.848;2023-08-12T02:58:55;3.58;;;1.92;;
40991;SDS011;29633;49.168;9.848;2023-08-12T03:01:21;2.17;;;1.90;;
40991;SDS011;29633;49.168;9.848;2023-08-12T03:03:47;2.22;;;1.77;;
40991;SDS011;29633;49.168;9.848;2023-08-12T03:06:13;2.83;;;2.20;;
40991;SDS011;29633;49.168;9.848;2023-08-12T03:08:38;2.88;;;2.05;;
40991;SDS011;29633;49.168;9.848;2023-08-12T03:11:04;2.42;;;2.05;;
40991;SDS011;29633;49.168;9.848;2023-08-12T03:13:30;2.47;;;2.28;;
40991;SDS011;29633;49.168;9.848;2023-08-12T03:15:56;2.42;;;2.22;;
40991;SDS011;29633;49.168;9.848;2023-08-12T03:18:22;2.45;;;2.08;;
40991;SDS011;29633;49.168;9.848;2023-08-12T03:20:48;2.70;;;2.33;;
40991;SDS011;29633;49.168;9.848;2023-08-12T03:23:14;2.60;;;2.13;;
40991;SDS011;29633;49.168;9.848;2023-08-12T03:25:40;1.90;;;1.80;;
40991;SDS011;29633;49.168;9.848;2023-08-12T03:28:06;3.78;;;1.98;;
40991;SDS011;29633;49.168;9.848;2023-08-12T03:30:31;3.53;;;1.83;;
40991;SDS011;29633;49.168;9.848;2023-08-12T03:32:57;2.00;;;1.90;;
40991;SDS011;29633;49.168;9.848;2023-08-12T03:35:23;2.50;;;2.30;;
40991;SDS011;29633;49.168;9.848;2023-08-12T03:37:48;2.30;;;2.10;;
40991;SDS011;29633;49.168;9.848;2023-08-12T03:40:16;2.90;;;2.08;;
40991;SDS011;29633;49.168;9.848;2023-08-12T03:42:42;2.55;;;2.35;;
40991;SDS011;29633;49.168;9.848;2023-08-12T03:45:07;2.53;;;2.03;;
40991;SDS011;29633;49.168;9.848;2023-08-12T03:47:34;2.00;;;1.90;;
40991;SDS011;29633;49.168;9.848;2023-08-12T03:49:59;4.85;;;2.10;;
40991;SDS011;29633;49.168;9.848;2023-08-12T03:52:25;3.17;;;2.00;;
40991;SDS011;29633;49.168;9.848;2023-08-12T03:54:51;2.17;;;1.83;;
40991;SDS011;29633;49.168;9.848;2023-08-12T03:57:18;1.98;;;1.85;;
40991;SDS011;29633;49.168;9.848;2023-08-12T03:59:43;2.35;;;2.15;;
40991;SDS011;29633;49.168;9.848;2023-08-12T04:02:09;2.67;;;2.13;;
40991;SDS011;29633;49.168;9.848;2023-08-12T04:04:35;2.97;;;2.17;;
40991;SDS011;29633;49.168;9.848;2023-08-12T04:07:01;2.78;;;2.17;;
40991;SDS011;29633;49.168;9.848;2023-08-12T04:09:27;2.05;;;1.80;;
40991;SDS011;29633;49.168;9.848;2023-08-12T04:11:52;2.15;;;1.95;;
40991;SDS011;29633;49.168;9.848;2023-08-12T04:14:18;2.33;;;1.92;;
40991;SDS011;29633;49.168;9.848;2023-08-12T04:16:44;3.65;;;2.25;;
40991;SDS011;29633;49.168;9.848;2023-08-12T04:19:10;2.78;;;1.90;;
40991;SDS011;29633;49.168;9.848;2023-08-12T04:21:35;3.33;;;2.00;;
40991;SDS011;29633;49.168;9.848;2023-08-12T04:24:01;2.08;;;1.88;;
40991;SDS011;29633;49.168;9.848;2023-08-12T04:26:27;2.60;;;1.67;;
40991;SDS011;29633;49.168;9.848;2023-08-12T04:28:53;2.00;;;1.90;;
40991;SDS011;29633;49.168;9.848;2023-08-12T04:31:19;2.10;;;1.90;;
40991;SDS011;29633;49.168;9.848;2023-08-12T04:33:44;2.15;;;1.67;;
40991;SDS011;29633;49.168;9.848;2023-08-12T04:36:10;1.95;;;1.85;;
40991;SDS011;29633;49.168;9.848;2023-08-12T04:38:36;4.38;;;2.00;;
40991;SDS011;29633;49.168;9.848;2023-08-12T04:41:01;1.75;;;1.65;;
40991;SDS011;29633;49.168;9.848;2023-08-12T04:43:27;2.47;;;1.90;;
40991;SDS011;29633;49.168;9.848;2023-08-12T04:45:55;2.05;;;1.92;;
40991;SDS011;29633;49.168;9.848;2023-08-12T04:48:21;3.53;;;1.88;;
40991;SDS011;29633;49.168;9.848;2023-08-12T04:50:47;2.67;;;2.00;;
40991;SDS011;29633;49.168;9.848;2023-08-12T04:53:12;2.20;;;1.80;;
40991;SDS011;29633;49.168;9.848;2023-08-12T04:55:38;2.33;;;2.00;;
40991;SDS011;29633;49.168;9.848;2023-08-12T04:58:04;2.20;;;1.92;;
40991;SDS011;29633;49.168;9.848;2023-08-12T05:00:30;2.63;;;1.80;;
40991;SDS011;29633;49.168;9.848;2023-08-12T05:02:56;2.60;;;1.75;;
40991;SDS011;29633;49.168;9.848;2023-08-12T05:05:22;2.10;;;1.90;;
40991;SDS011;29633;49.168;9.848;2023-08-12T05:07:47;2.10;;;1.90;;
40991;SDS011;29633;49.168;9.848;2023-08-12T05:10:14;2.30;;;2.00;;
40991;SDS011;29633;49.168;9.848;2023-08-12T05:12:42;1.83;;;1.73;;
40991;SDS011;29633;49.168;9.848;2023-08-12T05:15:09;2.17;;;1.70;;
40991;SDS011;29633;49.168;9.848;2023-08-12T05:17:35;3.20;;;1.95;;
40991;SDS011;29633;49.168;9.848;2023-08-12T05:20:01;2.17;;;1.98;;
40991;SDS011;29633;49.168;9.848;2023-08-12T05:22:28;1.95;;;1.75;;
40991;SDS011;29633;49.168;9.848;2023-08-12T05:24:54;2.35;;;2.10;;
40991;SDS011;29633;49.168;9.848;2023-08-12T05:27:20;1.88;;;1.75;;
40991;SDS011;29633;49.168;9.848;2023-08-12T05:29:46;2.05;;;1.88;;
40991;SDS011;29633;49.168;9.848;2023-08-12T05:32:11;2.30;;;2.10;;
40991;SDS011;29633;49.168;9.848;2023-08-12T05:34:37;3.40;;;3.10;;
40991;SDS011;29633;49.168;9.848;2023-08-12T05:37:03;4.05;;;3.08;;
40991;SDS011;29633;49.168;9.848;2023-08-12T05:39:28;3.50;;;3.00;;
40991;SDS011;29633;49.168;9.848;2023-08-12T05:41:54;3.13;;;2.83;;
40991;SDS011;29633;49.168;9.848;2023-08-12T05:44:20;2.80;;;2.60;;
40991;SDS011;29633;49.168;9.848;2023-08-12T05:46:46;3.55;;;2.85;;
40991;SDS011;29633;49.168;9.848;2023-08-12T05:49:11;2.60;;;2.40;;
40991;SDS011;29633;49.168;9.848;2023-08-12T05:51:37;3.25;;;2.40;;
40991;SDS011;29633;49.168;9.848;2023-08-12T05:54:03;2.50;;;2.30;;
40991;SDS011;29633;49.168;9.848;2023-08-12T05:56:30;3.65;;;2.08;;
40991;SDS011;29633;49.168;9.848;2023-08-12T05:58:55;2.50;;;2.30;;
40991;SDS011;29633;49.168;9.848;2023-08-12T06:01:21;2.20;;;1.85;;
40991;SDS011;29633;49.168;9.848;2023-08-12T06:03:47;2.92;;;2.40;;
40991;SDS011;29633;49.168;9.848;2023-08-12T06:06:12;3.13;;;2.53;;
40991;SDS011;29633;49.168;9.848;2023-08-12T06:08:38;2.42;;;2.03;;
40991;SDS011;29633;49.168;9.848;2023-08-12T06:11:04;2.22;;;2.03;;
40991;SDS011;29633;49.168;9.848;2023-08-12T06:13:30;2.03;;;1.70;;
40991;SDS011;29633;49.168;9.848;2023-08-12T06:15:55;2.42;;;2.15;;
40991;SDS011;29633;49.168;9.848;2023-08-12T06:18:22;2.60;;;2.30;;
40991;SDS011;29633;49.168;9.848;2023-08-12T06:20:47;2.38;;;2.17;;
40991;SDS011;29633;49.168;9.848;2023-08-12T06:23:13;2.63;;;2.00;;
40991;SDS011;29633;49.168;9.848;2023-08-12T06:25:41;2.20;;;2.00;;
40991;SDS011;29633;49.168;9.848;2023-08-12T06:28:07;3.50;;;1.92;;
40991;SDS011;29633;49.168;9.848;2023-08-12T06:30:35;2.25;;;2.05;;
40991;SDS011;29633;49.168;9.848;2023-08-12T06:33:01;2.58;;;2.20;;
40991;SDS011;29633;49.168;9.848;2023-08-12T06:35:27;2.28;;;2.08;;
40991;SDS011;29633;49.168;9.848;2023-08-12T06:37:52;2.90;;;2.35;;
40991;SDS011;29633;49.168;9.848;2023-08-12T06:40:18;2.13;;;1.92;;
40991;SDS011;29633;49.168;9.848;2023-08-12T06:42:47;4.35;;;2.22;;
40991;SDS011;29633;49.168;9.848;2023-08-12T06:45:12;2.00;;;1.80;;
40991;SDS011;29633;49.168;9.848;2023-08-12T06:47:38;1.98;;;1.73;;
40991;SDS011;29633;49.168;9.848;2023-08-12T06:50:04;2.83;;;1.80;;
40991;SDS011;29633;49.168;9.848;2023-08-12T06:52:30;1.65;;;1.55;;
40991;SDS011;29633;49.168;9.848;2023-08-12T06:54:56;2.80;;;1.90;;
40991;SDS011;29633;49.168;9.848;2023-08-12T06:57:22;2.08;;;1.88;;
40991;SDS011;29633;49.168;9.848;2023-08-12T06:59:47;2.45;;;2.05;;
40991;SDS011;29633;49.168;9.848;2023-08-12T07:02:13;2.20;;;2.00;;
40991;SDS011;29633;49.168;9.848;2023-08-12T07:04:39;3.35;;;1.90;;
40991;SDS011;29633;49.168;9.848;2023-08-12T07:07:04;2.58;;;1.88;;
40991;SDS011;29633;49.168;9.848;2023-08-12T07:09:30;2.05;;;1.80;;
40991;SDS011;29633;49.168;9.848;2023-08-12T07:11:58;2.17;;;1.92;;
40991;SDS011;29633;49.168;9.848;2023-08-12T07:14:24;1.65;;;1.55;;
40991;SDS011;29633;49.168;9.848;2023-08-12T07:16:49;1.88;;;1.77;;
40991;SDS011;29633;49.168;9.848;2023-08-12T07:19:15;1.75;;;1.65;;
40991;SDS011;29633;49.168;9.848;2023-08-12T07:21:41;1.65;;;1.55;;
40991;SDS011;29633;49.168;9.848;2023-08-12T07:24:07;5.10;;;2.05;;
40991;SDS011;29633;49.168;9.848;2023-08-12T07:26:32;2.30;;;2.10;;
40991;SDS011;29633;49.168;9.848;2023-08-12T07:28:58;2.42;;;2.08;;
40991;SDS011;29633;49.168;9.848;2023-08-12T07:31:26;1.88;;;1.77;;
40991;SDS011;29633;49.168;9.848;2023-08-12T07:33:52;2.10;;;1.98;;
40991;SDS011;29633;49.168;9.848;2023-08-12T07:36:17;1.75;;;1.65;;
40991;SDS011;29633;49.168;9.848;2023-08-12T07:38:43;1.90;;;1.73;;
40991;SDS011;29633;49.168;9.848;2023-08-12T07:41:09;2.30;;;2.10;;
40991;SDS011;29633;49.168;9.848;2023-08-12T07:43:34;3.65;;;2.33;;
40991;SDS011;29633;49.168;9.848;2023-08-12T07:46:00;3.33;;;1.90;;
40991;SDS011;29633;49.168;9.848;2023-08-12T07:48:26;3.28;;;2.10;;
40991;SDS011;29633;49.168;9.848;2023-08-12T07:50:56;2.33;;;2.13;;
40991;SDS011;29633;49.168;9.848;2023-08-12T07:53:23;3.10;;;2.03;;
40991;SDS011;29633;49.168;9.848;2023-08-12T07:55:49;2.28;;;2.08;;
40991;SDS011;29633;49.168;9.848;2023-08-12T07:58:15;1.95;;;1.85;;
40991;SDS011;29633;49.168;9.848;2023-08-12T08:00:40;3.67;;;2.10;;
40991;SDS011;29633;49.168;9.848;2023-08-12T08:03:06;2.03;;;1.88;;
40991;SDS011;29633;49.168;9.848;2023-08-12T08:05:32;3.38;;;2.00;;
40991;SDS011;29633;49.168;9.848;2023-08-12T08:07:58;2.30;;;2.10;;
40991;SDS011;29633;49.168;9.848;2023-08-12T08:10:24;2.00;;;1.77;;
40991;SDS011;29633;49.168;9.848;2023-08-12T08:12:50;2.30;;;2.10;;
40991;SDS011;29633;49.168;9.848;2023-08-12T08:15:15;2.55;;;1.77;;
40991;SDS011;29633;49.168;9.848;2023-08-12T08:17:41;1.75;;;1.65;;
40991;SDS011;29633;49.168;9.848;2023-08-12T08:20:07;2.88;;;2.08;;
40991;SDS011;29633;49.168;9.848;2023-08-12T08:22:35;2.22;;;2.13;;
40991;SDS011;29633;49.168;9.848;2023-08-12T08:25:01;2.22;;;1.88;;
40991;SDS011;29633;49.168;9.848;2023-08-12T08:27:27;2.40;;;2.15;;
40991;SDS011;29633;49.168;9.848;2023-08-12T08:29:53;2.40;;;2.20;;
40991;SDS011;29633;49.168;9.848;2023-08-12T08:32:18;2.65;;;2.05;;
40991;SDS011;29633;49.168;9.848;2023-08-12T08:34:44;2.22;;;1.88;;
40991;SDS011;29633;49.168;9.848;2023-08-12T08:37:10;2.00;;;1.88;;
40991;SDS011;29633;49.168;9.848;2023-08-12T08:39:36;2.17;;;1.98;;
40991;SDS011;29633;49.168;9.848;2023-08-12T08:42:02;3.22;;;2.20;;
40991;SDS011;29633;49.168;9.848;2023-08-12T08:44:31;2.30;;;2.10;;
40991;SDS011;29633;49.168;9.848;2023-08-12T08:46:58;3.85;;;1.80;;
40991;SDS011;29633;49.168;9.848;2023-08-12T08:49:26;2.83;;;2.05;;
40991;SDS011;29633;49.168;9.848;2023-08-12T08:51:53;2.17;;;2.00;;
40991;SDS011;29633;49.168;9.848;2023-08-12T08:54:19;2.92;;;2.13;;
40991;SDS011;29633;49.168;9.848;2023-08-12T08:56:45;1.80;;;1.70;;
40991;SDS011;29633;49.168;9.848;2023-08-12T08:59:13;2.30;;;2.10;;
40991;SDS011;29633;49.168;9.848;2023-08-12T09:01:39;2.45;;;2.25;;
40991;SDS011;29633;49.168;9.848;2023-08-12T09:04:06;3.40;;;2.30;;
40991;SDS011;29633;49.168;9.848;2023-08-12T09:06:33;3.67;;;2.67;;
40991;SDS011;29633;49.168;9.848;2023-08-12T09:09:01;9.07;;;3.33;;
40991;SDS011;29633;49.168;9.848;2023-08-12T09:11:30;6.22;;;2.47;;
40991;SDS011;29633;49.168;9.848;2023-08-12T09:13:58;6.82;;;2.20;;
40991;SDS011;29633;49.168;9.848;2023-08-12T09:16:24;2.30;;;2.10;;
40991;SDS011;29633;49.168;9.848;2023-08-12T09:18:54;1.90;;;1.65;;
40991;SDS011;29633;49.168;9.848;2023-08-12T09:21:21;3.58;;;1.85;;
40991;SDS011;29633;49.168;9.848;2023-08-12T09:23:47;2.92;;;1.92;;
40991;SDS011;29633;49.168;9.848;2023-08-12T09:26:19;2.30;;;2.05;;
40991;SDS011;29633;49.168;9.848;2023-08-12T09:28:46;3.17;;;2.00;;
40991;SDS011;29633;49.168;9.848;2023-08-12T09:31:31;2.33;;;1.67;;
40991;SDS011;29633;49.168;9.848;2023-08-12T09:34:03;2.33;;;1.80;;
40991;SDS011;29633;49.168;9.848;2023-08-12T09:36:31;2.20;;;1.90;;
40991;SDS011;29633;49.168;9.848;2023-08-12T09:38:58;12.00;;;3.53;;
40991;SDS011;29633;49.168;9.848;2023-08-12T09:41:27;5.38;;;2.50;;
40991;SDS011;29633;49.168;9.848;2023-08-12T09:43:54;3.80;;;2.00;;
40991;SDS011;29633;49.168;9.848;2023-08-12T09:46:22;2.10;;;1.90;;
40991;SDS011;29633;49.168;9.848;2023-08-12T09:48:52;1.87;;;1.77;;
40991;SDS011;29633;49.168;9.848;2023-08-12T09:51:21;1.85;;;1.75;;
40991;SDS011;29633;49.168;9.848;2023-08-12T09:53:47;2.15;;;1.75;;
40991;SDS011;29633;49.168;9.848;2023-08-12T09:56:14;2.42;;;1.80;;
40991;SDS011;29633;49.168;9.848;2023-08-12T09:58:47;2.33;;;1.95;;
40991;SDS011;29633;49.168;9.848;2023-08-12T10:01:16;3.60;;;1.80;;
40991;SDS011;29633;49.168;9.848;2023-08-12T10:03:46;2.20;;;1.80;;
40991;SDS011;29633;49.168;9.848;2023-08-12T10:06:16;1.47;;;1.37;;
40991;SDS011;29633;49.168;9.848;2023-08-12T10:08:43;2.30;;;1.50;;
40991;SDS011;29633;49.168;9.848;2023-08-12T10:11:11;2.10;;;1.90;;
40991;SDS011;29633;49.168;9.848;2023-08-12T10:13:40;2.63;;;1.60;;
40991;SDS011;29633;49.168;9.848;2023-08-12T10:16:06;1.63;;;1.50;;
40991;SDS011;29633;49.168;9.848;2023-08-12T10:18:32;2.20;;;1.80;;
40991;SDS011;29633;49.168;9.848;2023-08-12T10:21:00;2.50;;;1.85;;
40991;SDS011;29633;49.168;9.848;2023-08-12T10:23:26;1.95;;;1.55;;
40991;SDS011;29633;49.168;9.848;2023-08-12T10:25:54;1.63;;;1.52;;
40991;SDS011;29633;49.168;9.848;2023-08-12T10:28:21;2.13;;;1.73;;
40991;SDS011;29633;49.168;9.848;2023-08-12T10:30:48;1.92;;;1.67;;
40991;SDS011;29633;49.168;9.848;2023-08-12T10:33:14;2.53;;;1.63;;
40991;SDS011;29633;49.168;9.848;2023-08-12T10:35:47;1.77;;;1.67;;
40991;SDS011;29633;49.168;9.848;2023-08-12T10:40:45;1.83;;;1.30;;
40991;SDS011;29633;49.168;9.848;2023-08-12T10:43:12;2.78;;;1.80;;
40991;SDS011;29633;49.168;9.848;2023-08-12T10:45:42;1.85;;;1.63;;
40991;SDS011;29633;49.168;9.848;2023-08-12T10:48:16;1.75;;;1.65;;
40991;SDS011;29633;49.168;9.848;2023-08-12T10:50:49;1.55;;;1.38;;
40991;SDS011;29633;49.168;9.848;2023-08-12T10:53:27;4.80;;;1.55;;
40991;SDS011;29633;49.168;9.848;2023-08-12T10:56:00;2.00;;;1.80;;
40991;SDS011;29633;49.168;9.848;2023-08-12T10:59:01;1.77;;;1.58;;
40991;SDS011;29633;49.168;9.848;2023-08-12T11:01:20;1.55;;;1.30;;
40991;SDS011;29633;49.168;9.848;2023-08-12T11:03:48;2.88;;;1.25;;
40991;SDS011;29633;49.168;9.848;2023-08-12T11:06:14;1.52;;;1.30;;
40991;SDS011;29633;49.168;9.848;2023-08-12T11:08:52;2.33;;;1.27;;
40991;SDS011;29633;49.168;9.848;2023-08-12T11:11:22;1.25;;;1.15;;
40991;SDS011;29633;49.168;9.848;2023-08-12T11:13:57;1.87;;;1.30;;
40991;SDS011;29633;49.168;9.848;2023-08-12T11:16:36;1.50;;;1.40;;
40991;SDS011;29633;49.168;9.848;2023-08-12T11:19:03;3.60;;;1.20;;
40991;SDS011;29633;49.168;9.848;2023-08-12T11:21:30;1.30;;;1.20;;
40991;SDS011;29633;49.168;9.848;2023-08-12T11:23:56;2.45;;;2.22;;
40991;SDS011;29633;49.168;9.848;2023-08-12T11:26:25;3.50;;;2.35;;
40991;SDS011;29633;49.168;9.848;2023-08-12T11:28:50;1.90;;;1.80;;
40991;SDS011;29633;49.168;9.848;2023-08-12T11:31:18;2.13;;;1.50;;
40991;SDS011;29633;49.168;9.848;2023-08-12T11:33:44;1.60;;;1.35;;
40991;SDS011;29633;49.168;9.848;2023-08-12T11:36:10;2.25;;;1.50;;
40991;SDS011;29633;49.168;9.848;2023-08-12T11:38:35;1.65;;;1.50;;
40991;SDS011;29633;49.168;9.848;2023-08-12T11:41:02;2.58;;;1.30;;
40991;SDS011;29633;49.168;9.848;2023-08-12T11:43:28;3.53;;;1.50;;
40991;SDS011;29633;49.168;9.848;2023-08-12T11:45:56;2.67;;;1.30;;
40991;SDS011;29633;49.168;9.848;2023-08-12T11:48:23;1.48;;;1.38;;
40991;SDS011;29633;49.168;9.848;2023-08-12T11:50:49;1.60;;;1.27;;
40991;SDS011;29633;49.168;9.848;2023-08-12T11:53:15;1.63;;;1.30;;
40991;SDS011;29633;49.168;9.848;2023-08-12T11:55:41;1.75;;;1.50;;
40991;SDS011;29633;49.168;9.848;2023-08-12T11:58:08;1.40;;;1.30;;
40991;SDS011;29633;49.168;9.848;2023-08-12T12:00:36;2.30;;;1.40;;
40991;SDS011;29633;49.168;9.848;2023-08-12T12:03:03;4.82;;;1.48;;
40991;SDS011;29633;49.168;9.848;2023-08-12T12:05:30;4.20;;;1.35;;
40991;SDS011;29633;49.168;9.848;2023-08-12T12:07:56;1.73;;;1.63;;
40991;SDS011;29633;49.168;9.848;2023-08-12T12:10:27;2.67;;;1.40;;
40991;SDS011;29633;49.168;9.848;2023-08-12T12:12:55;1.50;;;1.40;;
40991;SDS011;29633;49.168;9.848;2023-08-12T12:15:22;1.70;;;1.40;;
40991;SDS011;29633;49.168;9.848;2023-08-12T12:17:51;1.58;;;1.40;;
40991;SDS011;29633;49.168;9.848;2023-08-12T12:20:17;1.90;;;1.33;;
40991;SDS011;29633;49.168;9.848;2023-08-12T12:22:44;1.30;;;1.20;;
40991;SDS011;29633;49.168;9.848;2023-08-12T12:25:13;1.92;;;1.50;;
40991;SDS011;29633;49.168;9.848;2023-08-12T12:27:41;1.73;;;1.50;;
40991;SDS011;29633;49.168;9.848;2023-08-12T12:30:10;21.48;;;14.50;;
40991;SDS011;29633;49.168;9.848;2023-08-12T12:32:39;13.68;;;10.60;;
40991;SDS011;29633;49.168;9.848;2023-08-12T12:35:05;10.05;;;6.70;;
40991;SDS011;29633;49.168;9.848;2023-08-12T12:37:35;24.67;;;14.00;;
40991;SDS011;29633;49.168;9.848;2023-08-12T12:40:01;6.50;;;5.70;;
40991;SDS011;29633;49.168;9.848;2023-08-12T12:42:29;2.85;;;2.50;;
40991;SDS011;29633;49.168;9.848;2023-08-12T12:44:55;2.60;;;2.40;;
40991;SDS011;29633;49.168;9.848;2023-08-12T12:47:20;3.83;;;3.28;;
40991;SDS011;29633;49.168;9.848;2023-08-12T12:49:46;3.15;;;2.95;;
40991;SDS011;29633;49.168;9.848;2023-08-12T12:52:12;3.30;;;3.00;;
40991;SDS011;29633;49.168;9.848;2023-08-12T12:54:38;3.42;;;1.92;;
40991;SDS011;29633;49.168;9.848;2023-08-12T12:57:03;3.13;;;2.22;;
40991;SDS011;29633;49.168;9.848;2023-08-12T12:59:30;2.92;;;2.05;;
40991;SDS011;29633;49.168;9.848;2023-08-12T13:01:56;2.72;;;2.17;;
40991;SDS011;29633;49.168;9.848;2023-08-12T13:04:22;2.50;;;2.30;;
40991;SDS011;29633;49.168;9.848;2023-08-12T13:06:48;2.50;;;2.30;;
40991;SDS011;29633;49.168;9.848;2023-08-12T13:09:13;2.72;;;2.03;;
40991;SDS011;29633;49.168;9.848;2023-08-12T13:11:39;4.40;;;2.65;;
40991;SDS011;29633;49.168;9.848;2023-08-12T13:14:05;2.70;;;2.50;;
40991;SDS011;29633;49.168;9.848;2023-08-12T13:16:31;3.47;;;2.67;;
40991;SDS011;29633;49.168;9.848;2023-08-12T13:18:57;3.38;;;2.80;;
40991;SDS011;29633;49.168;9.848;2023-08-12T13:21:24;3.33;;;2.53;;
40991;SDS011;29633;49.168;9.848;2023-08-12T13:23:51;3.17;;;2.80;;
40991;SDS011;29633;49.168;9.848;2023-08-12T13:26:17;2.80;;;2.60;;
40991;SDS011;29633;49.168;9.848;2023-08-12T13:28:44;2.70;;;2.50;;
40991;SDS011;29633;49.168;9.848;2023-08-12T13:31:11;6.78;;;2.70;;
40991;SDS011;29633;49.168;9.848;2023-08-12T13:33:37;5.25;;;3.60;;
40991;SDS011;29633;49.168;9.848;2023-08-12T13:36:03;8.73;;;3.88;;
40991;SDS011;29633;49.168;9.848;2023-08-12T13:38:29;6.07;;;3.47;;
40991;SDS011;29633;49.168;9.848;2023-08-12T13:40:55;3.05;;;2.78;;
40991;SDS011;29633;49.168;9.848;2023-08-12T13:43:20;3.22;;;2.70;;
40991;SDS011;29633;49.168;9.848;2023-08-12T13:45:46;3.65;;;2.50;;
40991;SDS011;29633;49.168;9.848;2023-08-12T13:48:12;5.90;;;2.90;;
40991;SDS011;29633;49.168;9.848;2023-08-12T13:50:37;3.40;;;3.10;;
40991;SDS011;29633;49.168;9.848;2023-08-12T13:53:03;5.53;;;3.22;;
40991;SDS011;29633;49.168;9.848;2023-08-12T13:55:29;3.20;;;2.90;;
40991;SDS011;29633;49.168;9.848;2023-08-12T13:57:54;2.63;;;2.42;;
40991;SDS011;29633;49.168;9.848;2023-08-12T14:00:20;2.53;;;2.33;;
40991;SDS011;29633;49.168;9.848;2023-08-12T14:02:47;2.13;;;2.03;;
40991;SDS011;29633;49.168;9.848;2023-08-12T14:05:13;2.20;;;2.10;;
40991;SDS011;29633;49.168;9.848;2023-08-12T14:07:39;4.05;;;2.30;;
40991;SDS011;29633;49.168;9.848;2023-08-12T14:10:06;2.40;;;2.20;;
40991;SDS011;29633;49.168;9.848;2023-08-12T14:12:33;3.03;;;2.13;;
40991;SDS011;29633;49.168;9.848;2023-08-12T14:14:59;2.15;;;2.03;;
40991;SDS011;29633;49.168;9.848;2023-08-12T14:17:25;2.63;;;2.42;;
40991;SDS011;29633;49.168;9.848;2023-08-12T14:19:51;2.92;;;2.30;;
40991;SDS011;29633;49.168;9.848;2023-08-12T14:22:18;2.90;;;2.20;;
40991;SDS011;29633;49.168;9.848;2023-08-12T14:24:44;2.92;;;2.60;;
40991;SDS011;29633;49.168;9.848;2023-08-12T14:27:13;4.40;;;2.60;;
40991;SDS011;29633;49.168;9.848;2023-08-12T14:29:45;4.18;;;2.30;;
40991;SDS011;29633;49.168;9.848;2023-08-12T14:32:11;3.20;;;2.42;;
40991;SDS011;29633;49.168;9.848;2023-08-12T14:34:37;3.95;;;2.40;;
40991;SDS011;29633;49.168;9.848;2023-08-12T14:37:03;2.38;;;2.20;;
40991;SDS011;29633;49.168;9.848;2023-08-12T14:39:29;2.75;;;2.47;;
40991;SDS011;29633;49.168;9.848;2023-08-12T14:41:54;3.92;;;2.40;;
40991;SDS011;29633;49.168;9.848;2023-08-12T14:44:20;3.53;;;2.65;;
40991;SDS011;29633;49.168;9.848;2023-08-12T14:46:46;2.95;;;2.53;;
40991;SDS011;29633;49.168;9.848;2023-08-12T14:49:12;2.60;;;2.40;;
40991;SDS011;29633;49.168;9.848;2023-08-12T14:51:38;2.95;;;2.75;;